createdAt,value
2023-04-12T00:00:12.160Z,88.72
2023-04-12T00:05:14.400Z,88.66
2023-04-12T00:10:16.532Z,88.60
2023-04-12T00:15:18.433Z,88.32
2023-04-12T00:20:20.427Z,88.12
2023-04-12T00:25:22.364Z,88.28
2023-04-12T00:30:24.554Z,88.26
2023-04-12T00:35:26.474Z,88.20
2023-04-12T00:40:28.437Z,88.34
2023-04-12T00:45:32.157Z,88.71
2023-04-12T00:50:37.298Z,88.73
2023-04-12T00:55:42.158Z,88.61
2023-04-12T01:00:50.129Z,89.06
2023-04-12T01:06:32.277Z,89.03
2023-04-12T01:12:08.911Z,88.92
2023-04-12T01:17:21.103Z,88.84
2023-04-12T01:22:33.488Z,88.99
2023-04-12T01:27:42.365Z,89.07
2023-04-12T01:32:47.837Z,88.65
2023-04-12T01:37:49.934Z,88.30
2023-04-12T01:42:52.143Z,88.05
2023-04-12T01:47:56.425Z,87.89
2023-04-12T01:53:18.546Z,87.87
2023-04-12T01:58:22.392Z,88.21
2023-04-12T02:03:24.819Z,87.75
2023-04-12T02:08:27.126Z,87.87
2023-04-12T02:13:29.208Z,88.04
2023-04-12T02:18:31.447Z,88.63
2023-04-12T02:23:33.699Z,88.79
2023-04-12T02:28:37.390Z,88.69
2023-04-12T02:33:41.335Z,88.29
2023-04-12T02:38:44.291Z,88.55
2023-04-12T02:43:46.965Z,88.28
2023-04-12T02:48:49.359Z,88.41
2023-04-12T02:53:52.808Z,88.71
2023-04-12T02:58:57.689Z,88.81
2023-04-12T03:04:11.231Z,88.64
2023-04-12T03:09:20.512Z,88.70
2023-04-12T03:14:22.597Z,88.70
2023-04-12T03:19:24.956Z,88.83
2023-04-12T03:24:30.041Z,89.21
2023-04-12T03:29:32.434Z,89.49
2023-04-12T03:34:35.558Z,89.67
2023-04-12T03:39:47.896Z,89.80
2023-04-12T03:44:54.018Z,89.83
2023-04-12T03:55:09.840Z,89.81
2023-04-12T04:00:13.880Z,89.90
2023-04-12T04:05:33.557Z,90.10
2023-04-12T04:10:36.390Z,90.10
2023-04-12T04:15:38.795Z,90.17
2023-04-12T04:20:40.608Z,90.23
2023-04-12T04:25:45.018Z,90.32
2023-04-12T04:30:48.617Z,90.52
2023-04-12T04:35:52.403Z,90.57
2023-04-12T04:40:59.873Z,90.57
2023-04-12T04:46:08.118Z,90.37
2023-04-12T04:51:10.218Z,89.34
2023-04-12T04:56:12.395Z,87.78
2023-04-12T05:01:16.946Z,87.35
2023-04-12T05:06:20.044Z,87.11
2023-04-12T05:11:22.076Z,86.58
2023-04-12T05:16:24.733Z,86.82
2023-04-12T05:21:27.325Z,86.84
2023-04-12T05:26:29.439Z,86.19
2023-04-12T05:31:33.045Z,85.94
2023-04-12T05:36:37.874Z,85.83
2023-04-12T05:41:39.636Z,85.25
2023-04-12T05:46:41.700Z,85.59
2023-04-12T05:51:43.750Z,86.62
2023-04-12T05:56:57.293Z,86.50
2023-04-12T06:02:00.721Z,85.79
2023-04-12T06:07:05.649Z,85.87
2023-04-12T06:12:07.471Z,87.11
2023-04-12T06:17:11.374Z,87.24
2023-04-12T06:22:15.717Z,86.41
2023-04-12T06:27:20.685Z,86.42
2023-04-12T06:32:23.013Z,86.37
2023-04-12T06:37:27.065Z,85.53
2023-04-12T06:42:28.834Z,84.85
2023-04-12T06:47:32.331Z,84.83
2023-04-12T06:52:34.234Z,85.63
2023-04-12T06:57:36.186Z,86.19
2023-04-12T07:02:39.058Z,86.37
2023-04-12T07:07:41.251Z,85.45
2023-04-12T07:12:43.028Z,86.43
2023-04-12T07:17:45.368Z,86.61
2023-04-12T07:22:47.217Z,86.13
2023-04-12T07:27:51.568Z,85.95
2023-04-12T07:32:58.434Z,85.43
2023-04-12T07:38:04.644Z,83.88
2023-04-12T07:43:06.497Z,85.60
2023-04-12T07:48:08.588Z,84.93
2023-04-12T07:53:22.302Z,83.89
2023-04-12T07:58:25.059Z,82.82
2023-04-12T08:03:27.288Z,84.56
2023-04-12T08:08:29.516Z,84.92
2023-04-12T08:13:31.498Z,82.91
2023-04-12T08:18:33.548Z,83.02
2023-04-12T08:23:35.376Z,84.01
2023-04-12T08:28:39.710Z,83.86
2023-04-12T08:33:41.835Z,84.97
2023-04-12T08:38:46.057Z,83.33
2023-04-12T08:43:48.900Z,80.62
2023-04-12T08:48:56.241Z,75.79
2023-04-12T08:53:59.364Z,75.30
2023-04-12T08:59:03.044Z,75.46
2023-04-12T09:04:08.311Z,78.66
2023-04-12T09:09:11.221Z,74.53
2023-04-12T09:14:24.075Z,77.90
2023-04-12T09:19:41.141Z,79.94
2023-04-12T09:24:50.614Z,79.45
2023-04-12T09:30:06.975Z,81.28
2023-04-12T09:35:09.783Z,76.43
2023-04-12T09:40:13.053Z,72.22
2023-04-12T09:45:24.409Z,76.95
2023-04-12T09:50:33.639Z,73.06
2023-04-12T09:55:35.910Z,71.72
2023-04-12T10:00:38.648Z,69.27
2023-04-12T10:05:42.355Z,62.72
2023-04-12T10:10:46.481Z,63.23
2023-04-12T10:15:51.033Z,65.12
2023-04-12T10:20:53.650Z,64.46
2023-04-12T10:25:57.112Z,65.96
2023-04-12T10:31:00.747Z,59.49
2023-04-12T10:36:06.911Z,64.04
2023-04-12T10:41:16.447Z,64.37
2023-04-12T10:46:40.257Z,65.19
2023-04-12T10:52:21.260Z,62.56
2023-04-12T11:03:08.916Z,63.92
2023-04-12T11:08:12.290Z,69.96
2023-04-12T11:13:15.010Z,69.30
2023-04-12T11:18:17.617Z,70.70
2023-04-12T11:23:19.789Z,67.23
2023-04-12T11:28:28.717Z,60.39
2023-04-12T11:33:39.816Z,65.65
2023-04-12T11:38:41.897Z,69.11
2023-04-12T11:43:45.350Z,65.64
2023-04-12T11:48:47.248Z,68.14
2023-04-12T11:53:53.789Z,63.97
2023-04-12T11:58:55.892Z,61.21
2023-04-12T12:04:02.737Z,60.50
2023-04-12T12:09:06.213Z,66.53
2023-04-12T12:14:08.613Z,65.53
2023-04-12T12:19:10.535Z,71.89
2023-04-12T12:24:14.827Z,69.36
2023-04-12T12:29:22.062Z,65.39
2023-04-12T12:34:24.767Z,66.32
2023-04-12T12:39:26.909Z,64.28
2023-04-12T12:44:29.346Z,65.63
2023-04-12T12:49:31.359Z,60.89
2023-04-12T12:54:41.159Z,62.28
2023-04-12T12:59:44.208Z,71.20
2023-04-12T13:04:47.262Z,63.28
2023-04-12T13:09:49.749Z,63.56
2023-04-12T13:14:57.910Z,68.36
2023-04-12T13:20:07.046Z,69.78
2023-04-12T13:25:10.003Z,66.30
2023-04-12T13:30:12.003Z,62.49
2023-04-12T13:35:14.814Z,58.39
2023-04-12T13:40:17.182Z,63.38
2023-04-12T13:45:19.104Z,68.44
2023-04-12T13:50:21.027Z,64.44
2023-04-12T13:55:23.130Z,62.06
2023-04-12T14:00:25.170Z,66.52
2023-04-12T14:05:27.455Z,60.42
2023-04-12T14:10:29.402Z,61.59
2023-04-12T14:15:31.307Z,65.02
2023-04-12T14:20:33.143Z,64.61
2023-04-12T14:25:37.549Z,63.86
2023-04-12T14:30:39.377Z,59.89
2023-04-12T14:35:41.516Z,61.47
2023-04-12T14:40:43.785Z,63.24
2023-04-12T14:45:45.747Z,61.13
2023-04-12T14:50:47.927Z,69.86
2023-04-12T14:55:49.834Z,71.80
2023-04-12T15:00:51.763Z,67.23
2023-04-12T15:05:54.170Z,68.48
2023-04-12T15:10:56.069Z,60.91
2023-04-12T15:15:58.785Z,70.56
2023-04-12T15:21:03.086Z,61.17
2023-04-12T15:26:09.189Z,56.18
2023-04-12T15:31:12.052Z,52.87
2023-04-12T15:36:16.873Z,52.05
2023-04-12T15:41:19.262Z,50.14
2023-04-12T15:46:21.635Z,56.28
2023-04-12T15:51:24.115Z,52.70
2023-04-12T15:56:26.505Z,50.69
2023-04-12T16:01:28.662Z,50.47
2023-04-12T16:06:34.764Z,49.68
2023-04-12T16:11:36.682Z,50.59
2023-04-12T16:16:40.484Z,52.69
2023-04-12T16:21:44.577Z,55.01
2023-04-12T16:26:48.108Z,63.84
2023-04-12T16:31:51.757Z,68.51
2023-04-12T16:36:53.934Z,56.78
2023-04-12T16:41:56.178Z,51.55
2023-04-12T16:46:58.295Z,52.55
2023-04-12T16:52:01.515Z,54.88
2023-04-12T16:57:04.161Z,59.54
2023-04-12T17:02:07.852Z,62.82
2023-04-12T17:07:11.185Z,71.96
2023-04-12T17:12:13.037Z,74.58
2023-04-12T17:17:15.518Z,71.95
2023-04-12T17:22:19.330Z,76.49
2023-04-12T17:27:22.247Z,77.85
2023-04-12T17:32:24.128Z,78.48
2023-04-12T17:37:27.877Z,79.10
2023-04-12T17:42:30.047Z,79.38
2023-04-12T17:47:35.703Z,79.81
2023-04-12T17:52:37.904Z,80.05
2023-04-12T17:57:42.180Z,80.42
2023-04-12T18:02:46.176Z,80.52
2023-04-12T18:07:48.763Z,80.97
2023-04-12T18:12:51.149Z,81.17
2023-04-12T18:17:53.375Z,81.34
2023-04-12T18:22:55.300Z,81.39
2023-04-12T18:27:57.576Z,81.47
2023-04-12T18:33:00.984Z,81.65
2023-04-12T18:38:05.237Z,81.82
2023-04-12T18:43:08.210Z,81.68
2023-04-12T18:48:10.896Z,81.74
2023-04-12T18:53:13.030Z,82.32
2023-04-12T18:58:16.572Z,82.69
2023-04-12T19:03:18.951Z,83.00
2023-04-12T19:08:22.605Z,83.28
2023-04-12T19:13:24.563Z,83.34
2023-04-12T19:18:30.288Z,83.46
2023-04-12T19:23:35.304Z,83.42
2023-04-12T19:28:38.023Z,83.28
2023-04-12T19:33:41.528Z,83.37
2023-04-12T19:38:44.243Z,83.33
2023-04-12T19:43:48.243Z,83.71
2023-04-12T19:48:51.387Z,84.05
2023-04-12T19:53:54.881Z,84.08
2023-04-12T19:58:58.147Z,83.49
2023-04-12T20:04:00.334Z,79.94
2023-04-12T20:09:02.883Z,81.82
2023-04-12T20:14:08.365Z,79.63
2023-04-12T20:19:10.419Z,78.90
2023-04-12T20:24:12.924Z,76.41
2023-04-12T20:29:16.365Z,73.70
2023-04-12T20:34:19.293Z,72.56
2023-04-12T20:39:23.235Z,76.41
2023-04-12T20:44:27.905Z,80.43
2023-04-12T20:49:31.193Z,79.84
2023-04-12T20:54:34.202Z,74.27
2023-04-12T20:59:36.296Z,72.00
2023-04-12T21:04:41.308Z,72.46
2023-04-12T21:09:44.375Z,73.26
2023-04-12T21:15:11.850Z,72.65
2023-04-12T21:20:14.087Z,73.11
2023-04-12T21:25:17.139Z,73.49
2023-04-12T21:30:19.169Z,76.43
2023-04-12T21:35:26.308Z,74.65
2023-04-12T21:40:28.689Z,73.60
2023-04-12T21:45:50.693Z,75.30
2023-04-12T21:50:54.545Z,76.64
2023-04-12T21:55:57.232Z,75.21
2023-04-12T22:00:59.264Z,76.93
2023-04-12T22:06:04.766Z,77.10
2023-04-12T22:11:07.593Z,75.57
2023-04-12T22:16:13.950Z,75.01
2023-04-12T22:21:16.596Z,79.04
2023-04-12T22:26:18.431Z,78.42
2023-04-12T22:31:22.960Z,75.90
2023-04-12T22:36:28.636Z,79.20
2023-04-12T22:41:32.983Z,80.20
2023-04-12T22:46:39.405Z,79.76
2023-04-12T22:51:42.766Z,82.03
2023-04-12T22:56:47.774Z,82.64
2023-04-12T23:01:50.362Z,83.81
2023-04-12T23:06:56.899Z,83.24
2023-04-12T23:12:00.246Z,81.66
2023-04-12T23:17:03.437Z,79.72
2023-04-12T23:22:06.208Z,79.78
2023-04-12T23:27:07.991Z,83.12
2023-04-12T23:32:10.489Z,83.00
2023-04-12T23:37:12.775Z,84.83
2023-04-12T23:42:23.687Z,85.97
2023-04-12T23:47:26.066Z,86.39
2023-04-12T23:52:48.465Z,86.16
2023-04-12T23:57:50.310Z,86.78
